sensor_id;sensor_type;location;lat;lon;timestamp;temperature;humidity
34574;DHT22;20809;49.594;8.734;2023-04-03T00:00:35;3.10;99.90
34574;DHT22;20809;49.594;8.734;2023-04-03T00:03:36;3.00;99.90
34574;DHT22;20809;49.594;8.734;2023-04-03T00:06:37;2.80;99.90
34574;DHT22;20809;49.594;8.734;2023-04-03T00:09:38;2.70;99.90
34574;DHT22;20809;49.594;8.734;2023-04-03T00:12:39;2.60;99.90
34574;DHT22;20809;49.594;8.734;2023-04-03T00:15:40;2.50;99.90
34574;DHT22;20809;49.594;8.734;2023-04-03T00:18:41;2.50;99.90
34574;DHT22;20809;49.594;8.734;2023-04-03T00:21:42;2.50;99.90
34574;DHT22;20809;49.594;8.734;2023-04-03T00:24:43;2.40;99.90
34574;DHT22;20809;49.594;8.734;2023-04-03T00:27:44;2.30;99.90
34574;DHT22;20809;49.594;8.734;2023-04-03T00:30:44;2.20;99.90
34574;DHT22;20809;49.594;8.734;2023-04-03T00:33:45;2.20;99.90
34574;DHT22;20809;49.594;8.734;2023-04-03T00:36:46;2.20;99.90
34574;DHT22;20809;49.594;8.734;2023-04-03T00:39:47;2.20;99.90
34574;DHT22;20809;49.594;8.734;2023-04-03T00:42:50;2.10;99.90
34574;DHT22;20809;49.594;8.734;2023-04-03T00:45:53;2.10;99.90
34574;DHT22;20809;49.594;8.734;2023-04-03T00:48:55;2.00;99.90
34574;DHT22;20809;49.594;8.734;2023-04-03T00:51:57;1.90;99.90
34574;DHT22;20809;49.594;8.734;2023-04-03T00:59:24;1.80;99.90
34574;DHT22;20809;49.594;8.734;2023-04-03T01:02:28;1.90;99.90
34574;DHT22;20809;49.594;8.734;2023-04-03T01:05:29;1.80;99.90
34574;DHT22;20809;49.594;8.734;2023-04-03T01:08:31;1.80;99.90
34574;DHT22;20809;49.594;8.734;2023-04-03T01:11:33;1.70;99.90
34574;DHT22;20809;49.594;8.734;2023-04-03T01:14:34;1.60;99.90
34574;DHT22;20809;49.594;8.734;2023-04-03T01:17:41;1.50;99.90
34574;DHT22;20809;49.594;8.734;2023-04-03T01:24:27;1.50;99.90
34574;DHT22;20809;49.594;8.734;2023-04-03T01:27:34;1.50;99.90
34574;DHT22;20809;49.594;8.734;2023-04-03T01:34:11;1.40;99.90
34574;DHT22;20809;49.594;8.734;2023-04-03T01:37:14;1.30;99.90
34574;DHT22;20809;49.594;8.734;2023-04-03T01:40:22;1.40;99.90
34574;DHT22;20809;49.594;8.734;2023-04-03T01:43:24;1.20;99.90
34574;DHT22;20809;49.594;8.734;2023-04-03T01:46:29;1.10;99.90
34574;DHT22;20809;49.594;8.734;2023-04-03T01:49:31;1.10;99.90
34574;DHT22;20809;49.594;8.734;2023-04-03T01:52:32;1.10;99.90
34574;DHT22;20809;49.594;8.734;2023-04-03T01:55:33;1.00;99.90
34574;DHT22;20809;49.594;8.734;2023-04-03T01:58:35;1.00;99.90
34574;DHT22;20809;49.594;8.734;2023-04-03T02:01:36;0.90;99.90
34574;DHT22;20809;49.594;8.734;2023-04-03T02:04:38;0.80;99.90
34574;DHT22;20809;49.594;8.734;2023-04-03T02:07:42;0.80;99.90
34574;DHT22;20809;49.594;8.734;2023-04-03T02:10:46;0.60;99.90
34574;DHT22;20809;49.594;8.734;2023-04-03T02:13:47;0.70;99.90
34574;DHT22;20809;49.594;8.734;2023-04-03T02:16:49;0.80;99.90
34574;DHT22;20809;49.594;8.734;2023-04-03T02:19:51;0.80;99.90
34574;DHT22;20809;49.594;8.734;2023-04-03T02:22:52;0.70;99.90
34574;DHT22;20809;49.594;8.734;2023-04-03T02:25:53;0.70;99.90
34574;DHT22;20809;49.594;8.734;2023-04-03T02:28:54;0.80;99.90
34574;DHT22;20809;49.594;8.734;2023-04-03T02:31:55;0.70;99.90
34574;DHT22;20809;49.594;8.734;2023-04-03T02:35:00;0.70;99.90
34574;DHT22;20809;49.594;8.734;2023-04-03T02:38:02;0.60;99.90
34574;DHT22;20809;49.594;8.734;2023-04-03T02:41:04;0.60;99.90
34574;DHT22;20809;49.594;8.734;2023-04-03T02:44:08;0.50;99.90
34574;DHT22;20809;49.594;8.734;2023-04-03T02:47:14;0.50;99.90
34574;DHT22;20809;49.594;8.734;2023-04-03T02:50:16;0.40;99.90
34574;DHT22;20809;49.594;8.734;2023-04-03T02:53:21;0.30;99.90
34574;DHT22;20809;49.594;8.734;2023-04-03T02:56:24;0.20;99.90
34574;DHT22;20809;49.594;8.734;2023-04-03T02:59:29;0.20;99.90
34574;DHT22;20809;49.594;8.734;2023-04-03T03:02:33;0.10;99.90
34574;DHT22;20809;49.594;8.734;2023-04-03T03:05:34;0.10;99.90
34574;DHT22;20809;49.594;8.734;2023-04-03T03:08:37;0.20;99.90
34574;DHT22;20809;49.594;8.734;2023-04-03T03:11:41;0.20;99.90
34574;DHT22;20809;49.594;8.734;2023-04-03T03:14:50;0.10;99.90
34574;DHT22;20809;49.594;8.734;2023-04-03T03:17:54;0.00;99.90
34574;DHT22;20809;49.594;8.734;2023-04-03T03:20:57;-0.10;99.90
34574;DHT22;20809;49.594;8.734;2023-04-03T03:23:58;-0.20;99.90
34574;DHT22;20809;49.594;8.734;2023-04-03T03:27:00;-0.30;99.90
34574;DHT22;20809;49.594;8.734;2023-04-03T03:30:01;-0.40;99.90
34574;DHT22;20809;49.594;8.734;2023-04-03T03:33:03;-0.40;99.90
34574;DHT22;20809;49.594;8.734;2023-04-03T03:36:04;-0.40;99.90
34574;DHT22;20809;49.594;8.734;2023-04-03T03:39:06;-0.50;99.90
34574;DHT22;20809;49.594;8.734;2023-04-03T03:42:07;-0.50;99.90
34574;DHT22;20809;49.594;8.734;2023-04-03T03:45:08;-0.50;99.90
34574;DHT22;20809;49.594;8.734;2023-04-03T03:48:10;-0.60;99.90
34574;DHT22;20809;49.594;8.734;2023-04-03T03:51:11;-0.60;99.90
34574;DHT22;20809;49.594;8.734;2023-04-03T03:54:13;-0.60;99.90
34574;DHT22;20809;49.594;8.734;2023-04-03T03:57:16;-0.60;99.90
34574;DHT22;20809;49.594;8.734;2023-04-03T04:00:17;-0.60;99.90
34574;DHT22;20809;49.594;8.734;2023-04-03T04:03:19;-0.70;99.90
34574;DHT22;20809;49.594;8.734;2023-04-03T04:06:21;-0.70;99.90
34574;DHT22;20809;49.594;8.734;2023-04-03T04:09:23;-0.70;99.90
34574;DHT22;20809;49.594;8.734;2023-04-03T04:12:24;-0.80;99.90
34574;DHT22;20809;49.594;8.734;2023-04-03T04:15:25;-0.80;99.90
34574;DHT22;20809;49.594;8.734;2023-04-03T04:18:28;-0.80;99.90
34574;DHT22;20809;49.594;8.734;2023-04-03T04:21:29;-0.80;99.90
34574;DHT22;20809;49.594;8.734;2023-04-03T04:24:32;-0.80;99.90
34574;DHT22;20809;49.594;8.734;2023-04-03T04:27:35;-0.80;99.90
34574;DHT22;20809;49.594;8.734;2023-04-03T04:30:41;-0.80;99.90
34574;DHT22;20809;49.594;8.734;2023-04-03T04:33:43;-0.80;99.90
34574;DHT22;20809;49.594;8.734;2023-04-03T04:36:47;-0.80;99.90
34574;DHT22;20809;49.594;8.734;2023-04-03T04:39:49;-0.80;99.90
34574;DHT22;20809;49.594;8.734;2023-04-03T04:42:52;-0.80;99.90
34574;DHT22;20809;49.594;8.734;2023-04-03T04:46:07;-0.80;99.90
34574;DHT22;20809;49.594;8.734;2023-04-03T04:49:10;-0.80;99.90
34574;DHT22;20809;49.594;8.734;2023-04-03T04:52:12;-0.70;99.90
34574;DHT22;20809;49.594;8.734;2023-04-03T04:55:14;-0.70;99.90
34574;DHT22;20809;49.594;8.734;2023-04-03T04:58:19;-0.70;99.90
34574;DHT22;20809;49.594;8.734;2023-04-03T05:01:29;-0.70;99.90
34574;DHT22;20809;49.594;8.734;2023-04-03T05:04:36;-0.60;99.90
34574;DHT22;20809;49.594;8.734;2023-04-03T05:07:38;-0.60;99.90
34574;DHT22;20809;49.594;8.734;2023-04-03T05:10:47;-0.60;99.90
34574;DHT22;20809;49.594;8.734;2023-04-03T05:13:49;-0.60;99.90
34574;DHT22;20809;49.594;8.734;2023-04-03T05:16:51;-0.50;99.90
34574;DHT22;20809;49.594;8.734;2023-04-03T05:19:54;-0.40;99.90
34574;DHT22;20809;49.594;8.734;2023-04-03T05:22:58;-0.40;99.90
34574;DHT22;20809;49.594;8.734;2023-04-03T05:26:01;-0.40;99.90
34574;DHT22;20809;49.594;8.734;2023-04-03T05:29:04;-0.30;99.90
34574;DHT22;20809;49.594;8.734;2023-04-03T05:32:11;-0.20;99.90
34574;DHT22;20809;49.594;8.734;2023-04-03T05:35:18;-0.20;99.90
34574;DHT22;20809;49.594;8.734;2023-04-03T05:38:30;-0.20;99.90
34574;DHT22;20809;49.594;8.734;2023-04-03T05:41:34;-0.20;99.90
34574;DHT22;20809;49.594;8.734;2023-04-03T05:44:37;-0.20;99.90
34574;DHT22;20809;49.594;8.734;2023-04-03T05:47:47;-0.20;99.90
34574;DHT22;20809;49.594;8.734;2023-04-03T05:50:49;-0.20;99.90
34574;DHT22;20809;49.594;8.734;2023-04-03T05:53:54;-0.10;99.90
34574;DHT22;20809;49.594;8.734;2023-04-03T05:57:00;-0.10;99.90
34574;DHT22;20809;49.594;8.734;2023-04-03T06:00:06;-0.10;99.90
34574;DHT22;20809;49.594;8.734;2023-04-03T06:03:18;-0.10;99.90
34574;DHT22;20809;49.594;8.734;2023-04-03T06:06:26;-0.10;99.90
34574;DHT22;20809;49.594;8.734;2023-04-03T06:09:50;0.10;99.90
34574;DHT22;20809;49.594;8.734;2023-04-03T06:12:53;0.20;99.90
34574;DHT22;20809;49.594;8.734;2023-04-03T06:15:54;0.30;99.90
34574;DHT22;20809;49.594;8.734;2023-04-03T06:18:56;0.50;99.90
34574;DHT22;20809;49.594;8.734;2023-04-03T06:21:58;0.80;99.90
34574;DHT22;20809;49.594;8.734;2023-04-03T06:25:03;1.50;99.90
34574;DHT22;20809;49.594;8.734;2023-04-03T06:28:07;2.80;99.90
34574;DHT22;20809;49.594;8.734;2023-04-03T06:31:11;4.80;99.90
34574;DHT22;20809;49.594;8.734;2023-04-03T06:34:13;5.70;99.90
34574;DHT22;20809;49.594;8.734;2023-04-03T06:37:21;6.50;99.90
34574;DHT22;20809;49.594;8.734;2023-04-03T06:40:25;7.00;99.90
34574;DHT22;20809;49.594;8.734;2023-04-03T06:43:30;8.30;99.90
34574;DHT22;20809;49.594;8.734;2023-04-03T06:46:35;9.90;99.90
34574;DHT22;20809;49.594;8.734;2023-04-03T06:49:40;11.30;99.90
34574;DHT22;20809;49.594;8.734;2023-04-03T06:52:44;12.30;99.90
34574;DHT22;20809;49.594;8.734;2023-04-03T06:55:45;12.70;99.90
34574;DHT22;20809;49.594;8.734;2023-04-03T06:58:49;13.00;99.90
34574;DHT22;20809;49.594;8.734;2023-04-03T07:01:52;12.60;99.90
34574;DHT22;20809;49.594;8.734;2023-04-03T07:04:54;12.30;99.90
34574;DHT22;20809;49.594;8.734;2023-04-03T07:07:59;11.80;99.90
34574;DHT22;20809;49.594;8.734;2023-04-03T07:15:02;9.50;99.90
34574;DHT22;20809;49.594;8.734;2023-04-03T07:18:07;8.30;99.90
34574;DHT22;20809;49.594;8.734;2023-04-03T07:21:10;8.00;99.90
34574;DHT22;20809;49.594;8.734;2023-04-03T07:24:11;7.10;99.90
34574;DHT22;20809;49.594;8.734;2023-04-03T07:27:16;6.40;99.90
34574;DHT22;20809;49.594;8.734;2023-04-03T07:30:18;5.80;99.90
34574;DHT22;20809;49.594;8.734;2023-04-03T07:33:24;5.40;99.90
34574;DHT22;20809;49.594;8.734;2023-04-03T07:36:34;5.30;99.90
34574;DHT22;20809;49.594;8.734;2023-04-03T07:39:44;5.30;99.90
34574;DHT22;20809;49.594;8.734;2023-04-03T07:42:47;5.30;99.90
34574;DHT22;20809;49.594;8.734;2023-04-03T07:45:52;5.30;99.90
34574;DHT22;20809;49.594;8.734;2023-04-03T07:48:55;5.40;99.90
34574;DHT22;20809;49.594;8.734;2023-04-03T07:52:02;5.50;99.90
34574;DHT22;20809;49.594;8.734;2023-04-03T07:55:13;5.60;99.90
34574;DHT22;20809;49.594;8.734;2023-04-03T07:58:18;5.60;99.90
34574;DHT22;20809;49.594;8.734;2023-04-03T08:01:27;5.60;99.90
34574;DHT22;20809;49.594;8.734;2023-04-03T08:04:33;5.50;99.90
34574;DHT22;20809;49.594;8.734;2023-04-03T08:07:39;5.70;99.90
34574;DHT22;20809;49.594;8.734;2023-04-03T08:10:50;5.80;99.90
34574;DHT22;20809;49.594;8.734;2023-04-03T08:13:53;5.60;99.90
34574;DHT22;20809;49.594;8.734;2023-04-03T08:17:01;5.60;99.90
34574;DHT22;20809;49.594;8.734;2023-04-03T08:20:12;5.70;99.90
34574;DHT22;20809;49.594;8.734;2023-04-03T08:23:17;5.90;99.90
34574;DHT22;20809;49.594;8.734;2023-04-03T08:26:27;6.00;99.90
34574;DHT22;20809;49.594;8.734;2023-04-03T08:29:36;6.30;99.90
34574;DHT22;20809;49.594;8.734;2023-04-03T08:32:40;6.20;99.90
34574;DHT22;20809;49.594;8.734;2023-04-03T08:35:49;6.20;99.90
34574;DHT22;20809;49.594;8.734;2023-04-03T08:38:55;6.40;99.90
34574;DHT22;20809;49.594;8.734;2023-04-03T08:42:07;6.50;99.90
34574;DHT22;20809;49.594;8.734;2023-04-03T08:48:43;6.60;99.90
34574;DHT22;20809;49.594;8.734;2023-04-03T08:51:50;6.60;99.90
34574;DHT22;20809;49.594;8.734;2023-04-03T08:54:58;6.10;99.90
34574;DHT22;20809;49.594;8.734;2023-04-03T08:58:19;6.00;99.90
34574;DHT22;20809;49.594;8.734;2023-04-03T09:01:43;6.00;99.90
34574;DHT22;20809;49.594;8.734;2023-04-03T09:04:46;6.00;99.90
34574;DHT22;20809;49.594;8.734;2023-04-03T09:14:59;6.60;99.90
34574;DHT22;20809;49.594;8.734;2023-04-03T09:18:21;6.90;99.90
34574;DHT22;20809;49.594;8.734;2023-04-03T09:21:39;6.80;99.90
34574;DHT22;20809;49.594;8.734;2023-04-03T09:24:47;6.80;99.90
34574;DHT22;20809;49.594;8.734;2023-04-03T09:27:53;6.80;99.90
34574;DHT22;20809;49.594;8.734;2023-04-03T09:30:57;6.50;99.90
34574;DHT22;20809;49.594;8.734;2023-04-03T09:34:20;6.50;99.90
34574;DHT22;20809;49.594;8.734;2023-04-03T09:37:46;6.50;99.90
34574;DHT22;20809;49.594;8.734;2023-04-03T09:41:05;6.80;99.90
34574;DHT22;20809;49.594;8.734;2023-04-03T09:44:27;7.00;99.90
34574;DHT22;20809;49.594;8.734;2023-04-03T09:47:35;7.40;99.90
34574;DHT22;20809;49.594;8.734;2023-04-03T09:51:02;7.50;99.90
34574;DHT22;20809;49.594;8.734;2023-04-03T09:57:33;7.90;99.90
34574;DHT22;20809;49.594;8.734;2023-04-03T10:00:42;8.30;99.90
34574;DHT22;20809;49.594;8.734;2023-04-03T10:07:36;9.10;99.90
34574;DHT22;20809;49.594;8.734;2023-04-03T10:10:46;9.50;99.90
34574;DHT22;20809;49.594;8.734;2023-04-03T10:13:58;9.40;99.90
34574;DHT22;20809;49.594;8.734;2023-04-03T10:20:39;9.70;98.70
34574;DHT22;20809;49.594;8.734;2023-04-03T10:27:34;8.80;99.00
34574;DHT22;20809;49.594;8.734;2023-04-03T10:31:23;8.90;98.70
34574;DHT22;20809;49.594;8.734;2023-04-03T10:34:44;9.30;97.80
34574;DHT22;20809;49.594;8.734;2023-04-03T10:54:49;10.10;94.70
34574;DHT22;20809;49.594;8.734;2023-04-03T10:57:56;9.60;94.00
34574;DHT22;20809;49.594;8.734;2023-04-03T11:01:18;9.80;95.60
34574;DHT22;20809;49.594;8.734;2023-04-03T11:04:26;10.20;95.50
34574;DHT22;20809;49.594;8.734;2023-04-03T11:07:32;10.80;95.70
34574;DHT22;20809;49.594;8.734;2023-04-03T11:10:48;11.10;96.00
34574;DHT22;20809;49.594;8.734;2023-04-03T11:13:55;10.80;96.50
34574;DHT22;20809;49.594;8.734;2023-04-03T11:20:32;10.70;95.70
34574;DHT22;20809;49.594;8.734;2023-04-03T11:23:36;10.70;93.80
34574;DHT22;20809;49.594;8.734;2023-04-03T11:26:42;10.50;94.40
34574;DHT22;20809;49.594;8.734;2023-04-03T11:29:49;10.20;94.90
34574;DHT22;20809;49.594;8.734;2023-04-03T11:36:49;9.90;95.90
34574;DHT22;20809;49.594;8.734;2023-04-03T11:40:07;10.10;93.20
34574;DHT22;20809;49.594;8.734;2023-04-03T11:46:53;9.80;96.10
34574;DHT22;20809;49.594;8.734;2023-04-03T11:49:59;9.50;95.80
34574;DHT22;20809;49.594;8.734;2023-04-03T11:56:33;9.60;95.50
34574;DHT22;20809;49.594;8.734;2023-04-03T11:59:43;9.90;94.20
34574;DHT22;20809;49.594;8.734;2023-04-03T12:02:47;10.10;94.90
34574;DHT22;20809;49.594;8.734;2023-04-03T12:08:56;10.50;94.60
34574;DHT22;20809;49.594;8.734;2023-04-03T12:12:29;10.60;93.80
34574;DHT22;20809;49.594;8.734;2023-04-03T12:15:48;11.30;94.10
34574;DHT22;20809;49.594;8.734;2023-04-03T12:18:57;11.70;91.60
34574;DHT22;20809;49.594;8.734;2023-04-03T12:22:13;11.70;91.10
34574;DHT22;20809;49.594;8.734;2023-04-03T12:25:46;11.20;90.70
34574;DHT22;20809;49.594;8.734;2023-04-03T12:28:52;10.40;91.90
34574;DHT22;20809;49.594;8.734;2023-04-03T12:32:12;9.70;93.70
34574;DHT22;20809;49.594;8.734;2023-04-03T12:49:42;8.90;94.80
34574;DHT22;20809;49.594;8.734;2023-04-03T12:53:01;9.20;94.00
34574;DHT22;20809;49.594;8.734;2023-04-03T12:59:26;10.00;91.80
34574;DHT22;20809;49.594;8.734;2023-04-03T13:02:32;10.30;91.70
34574;DHT22;20809;49.594;8.734;2023-04-03T13:05:38;9.40;93.10
34574;DHT22;20809;49.594;8.734;2023-04-03T13:08:58;8.80;93.60
34574;DHT22;20809;49.594;8.734;2023-04-03T13:12:12;8.50;94.20
34574;DHT22;20809;49.594;8.734;2023-04-03T13:15:19;8.40;95.00
34574;DHT22;20809;49.594;8.734;2023-04-03T13:18:25;8.70;92.30
34574;DHT22;20809;49.594;8.734;2023-04-03T13:21:31;9.30;91.60
34574;DHT22;20809;49.594;8.734;2023-04-03T13:24:39;9.80;90.70
34574;DHT22;20809;49.594;8.734;2023-04-03T13:27:42;9.90;90.10
34574;DHT22;20809;49.594;8.734;2023-04-03T13:34:21;8.90;90.50
34574;DHT22;20809;49.594;8.734;2023-04-03T13:37:32;8.00;91.20
34574;DHT22;20809;49.594;8.734;2023-04-03T13:40:51;7.50;91.40
34574;DHT22;20809;49.594;8.734;2023-04-03T13:43:55;7.50;90.00
34574;DHT22;20809;49.594;8.734;2023-04-03T13:47:18;8.00;91.00
34574;DHT22;20809;49.594;8.734;2023-04-03T13:50:26;8.60;88.30
34574;DHT22;20809;49.594;8.734;2023-04-03T13:53:32;8.80;86.70
34574;DHT22;20809;49.594;8.734;2023-04-03T13:56:40;8.90;89.70
34574;DHT22;20809;49.594;8.734;2023-04-03T13:59:47;9.20;87.30
34574;DHT22;20809;49.594;8.734;2023-04-03T14:02:50;9.30;87.00
34574;DHT22;20809;49.594;8.734;2023-04-03T14:05:55;9.10;86.80
34574;DHT22;20809;49.594;8.734;2023-04-03T14:08:56;9.40;88.20
34574;DHT22;20809;49.594;8.734;2023-04-03T14:12:02;9.50;87.50
34574;DHT22;20809;49.594;8.734;2023-04-03T14:15:20;9.40;87.80
34574;DHT22;20809;49.594;8.734;2023-04-03T14:18:22;8.90;87.40
34574;DHT22;20809;49.594;8.734;2023-04-03T14:21:26;8.70;86.50
34574;DHT22;20809;49.594;8.734;2023-04-03T14:24:27;8.60;87.10
34574;DHT22;20809;49.594;8.734;2023-04-03T14:27:38;8.70;87.20
34574;DHT22;20809;49.594;8.734;2023-04-03T14:30:39;8.50;84.60
34574;DHT22;20809;49.594;8.734;2023-04-03T14:33:41;8.40;85.90
34574;DHT22;20809;49.594;8.734;2023-04-03T14:36:43;8.40;84.90
34574;DHT22;20809;49.594;8.734;2023-04-03T14:39:45;8.60;85.30
34574;DHT22;20809;49.594;8.734;2023-04-03T14:42:50;8.50;83.80
34574;DHT22;20809;49.594;8.734;2023-04-03T14:45:51;8.60;82.60
34574;DHT22;20809;49.594;8.734;2023-04-03T14:48:52;8.70;84.60
34574;DHT22;20809;49.594;8.734;2023-04-03T14:51:56;8.90;85.20
34574;DHT22;20809;49.594;8.734;2023-04-03T14:54:59;8.90;84.70
34574;DHT22;20809;49.594;8.734;2023-04-03T14:58:01;8.80;84.30
34574;DHT22;20809;49.594;8.734;2023-04-03T15:01:02;8.90;84.70
34574;DHT22;20809;49.594;8.734;2023-04-03T15:04:20;9.10;85.80
34574;DHT22;20809;49.594;8.734;2023-04-03T15:07:23;9.20;86.50
34574;DHT22;20809;49.594;8.734;2023-04-03T15:10:26;9.40;85.80
34574;DHT22;20809;49.594;8.734;2023-04-03T15:13:28;9.40;83.30
34574;DHT22;20809;49.594;8.734;2023-04-03T15:16:29;9.10;82.30
34574;DHT22;20809;49.594;8.734;2023-04-03T15:19:35;8.90;83.70
34574;DHT22;20809;49.594;8.734;2023-04-03T15:22:36;8.90;85.80
34574;DHT22;20809;49.594;8.734;2023-04-03T15:25:37;8.60;87.10
34574;DHT22;20809;49.594;8.734;2023-04-03T15:28:42;8.40;85.00
34574;DHT22;20809;49.594;8.734;2023-04-03T15:31:44;8.30;86.90
34574;DHT22;20809;49.594;8.734;2023-04-03T15:34:45;8.20;83.50
34574;DHT22;20809;49.594;8.734;2023-04-03T15:37:46;8.10;87.00
34574;DHT22;20809;49.594;8.734;2023-04-03T15:40:52;8.30;84.30
34574;DHT22;20809;49.594;8.734;2023-04-03T15:43:58;8.60;83.60
34574;DHT22;20809;49.594;8.734;2023-04-03T15:47:07;8.60;83.40
34574;DHT22;20809;49.594;8.734;2023-04-03T15:50:14;8.60;82.80
34574;DHT22;20809;49.594;8.734;2023-04-03T15:53:19;8.70;84.00
34574;DHT22;20809;49.594;8.734;2023-04-03T15:56:22;8.60;85.50
34574;DHT22;20809;49.594;8.734;2023-04-03T15:59:23;8.70;84.60
34574;DHT22;20809;49.594;8.734;2023-04-03T16:02:25;8.70;84.90
34574;DHT22;20809;49.594;8.734;2023-04-03T16:05:29;8.70;85.10
34574;DHT22;20809;49.594;8.734;2023-04-03T16:08:32;8.50;85.50
34574;DHT22;20809;49.594;8.734;2023-04-03T16:11:33;8.50;85.60
34574;DHT22;20809;49.594;8.734;2023-04-03T16:14:36;8.30;84.80
34574;DHT22;20809;49.594;8.734;2023-04-03T16:17:39;8.10;85.40
34574;DHT22;20809;49.594;8.734;2023-04-03T16:20:46;8.20;85.90
34574;DHT22;20809;49.594;8.734;2023-04-03T16:23:49;8.10;85.50
34574;DHT22;20809;49.594;8.734;2023-04-03T16:26:53;8.20;86.00
34574;DHT22;20809;49.594;8.734;2023-04-03T16:30:11;8.10;85.00
34574;DHT22;20809;49.594;8.734;2023-04-03T16:33:14;8.10;86.00
34574;DHT22;20809;49.594;8.734;2023-04-03T16:36:18;8.20;85.80
34574;DHT22;20809;49.594;8.734;2023-04-03T16:39:23;8.30;84.70
34574;DHT22;20809;49.594;8.734;2023-04-03T16:42:32;8.40;84.30
34574;DHT22;20809;49.594;8.734;2023-04-03T16:45:35;8.50;83.80
34574;DHT22;20809;49.594;8.734;2023-04-03T16:48:40;8.50;85.30
34574;DHT22;20809;49.594;8.734;2023-04-03T16:51:45;8.50;83.70
34574;DHT22;20809;49.594;8.734;2023-04-03T16:54:50;8.70;83.00
34574;DHT22;20809;49.594;8.734;2023-04-03T16:57:57;8.80;82.20
34574;DHT22;20809;49.594;8.734;2023-04-03T17:01:13;8.90;84.30
34574;DHT22;20809;49.594;8.734;2023-04-03T17:04:15;9.30;84.40
34574;DHT22;20809;49.594;8.734;2023-04-03T17:07:21;9.80;80.80
34574;DHT22;20809;49.594;8.734;2023-04-03T17:10:25;9.60;81.80
34574;DHT22;20809;49.594;8.734;2023-04-03T17:13:31;9.50;80.20
34574;DHT22;20809;49.594;8.734;2023-04-03T17:16:36;9.50;81.00
34574;DHT22;20809;49.594;8.734;2023-04-03T17:19:40;9.60;81.60
34574;DHT22;20809;49.594;8.734;2023-04-03T17:22:42;9.90;82.40
34574;DHT22;20809;49.594;8.734;2023-04-03T17:25:49;9.60;80.00
34574;DHT22;20809;49.594;8.734;2023-04-03T17:28:57;9.10;81.50
34574;DHT22;20809;49.594;8.734;2023-04-03T17:32:04;9.10;82.50
34574;DHT22;20809;49.594;8.734;2023-04-03T17:35:13;8.40;82.60
34574;DHT22;20809;49.594;8.734;2023-04-03T17:38:16;7.50;85.50
34574;DHT22;20809;49.594;8.734;2023-04-03T17:41:18;7.20;86.80
34574;DHT22;20809;49.594;8.734;2023-04-03T17:44:22;7.10;88.00
34574;DHT22;20809;49.594;8.734;2023-04-03T17:47:25;7.10;87.40
34574;DHT22;20809;49.594;8.734;2023-04-03T17:50:28;6.80;88.40
34574;DHT22;20809;49.594;8.734;2023-04-03T17:53:32;6.50;87.00
34574;DHT22;20809;49.594;8.734;2023-04-03T17:56:35;6.30;88.90
34574;DHT22;20809;49.594;8.734;2023-04-03T17:59:37;6.20;88.20
34574;DHT22;20809;49.594;8.734;2023-04-03T18:02:39;6.00;89.60
34574;DHT22;20809;49.594;8.734;2023-04-03T18:05:41;5.90;90.30
34574;DHT22;20809;49.594;8.734;2023-04-03T18:08:46;5.80;91.40
34574;DHT22;20809;49.594;8.734;2023-04-03T18:11:52;5.70;91.80
34574;DHT22;20809;49.594;8.734;2023-04-03T18:14:56;5.60;91.70
34574;DHT22;20809;49.594;8.734;2023-04-03T18:18:02;5.40;92.20
34574;DHT22;20809;49.594;8.734;2023-04-03T18:21:08;5.30;92.80
34574;DHT22;20809;49.594;8.734;2023-04-03T18:24:14;5.20;93.60
34574;DHT22;20809;49.594;8.734;2023-04-03T18:27:20;5.20;93.40
34574;DHT22;20809;49.594;8.734;2023-04-03T18:30:24;5.10;93.90
34574;DHT22;20809;49.594;8.734;2023-04-03T18:33:29;5.00;94.30
34574;DHT22;20809;49.594;8.734;2023-04-03T18:36:36;5.00;94.80
34574;DHT22;20809;49.594;8.734;2023-04-03T18:39:37;4.80;95.00
34574;DHT22;20809;49.594;8.734;2023-04-03T18:42:38;4.80;95.60
34574;DHT22;20809;49.594;8.734;2023-04-03T18:45:41;4.80;95.80
34574;DHT22;20809;49.594;8.734;2023-04-03T18:48:46;4.60;97.00
34574;DHT22;20809;49.594;8.734;2023-04-03T18:51:47;4.50;97.20
34574;DHT22;20809;49.594;8.734;2023-04-03T18:54:50;4.60;96.80
34574;DHT22;20809;49.594;8.734;2023-04-03T18:57:52;4.60;96.60
34574;DHT22;20809;49.594;8.734;2023-04-03T19:00:53;4.60;96.80
34574;DHT22;20809;49.594;8.734;2023-04-03T19:03:57;4.60;97.00
34574;DHT22;20809;49.594;8.734;2023-04-03T19:06:58;4.50;97.20
34574;DHT22;20809;49.594;8.734;2023-04-03T19:10:02;4.50;97.40
34574;DHT22;20809;49.594;8.734;2023-04-03T19:13:04;4.50;97.10
34574;DHT22;20809;49.594;8.734;2023-04-03T19:16:06;4.50;97.50
34574;DHT22;20809;49.594;8.734;2023-04-03T19:19:07;4.40;98.10
34574;DHT22;20809;49.594;8.734;2023-04-03T19:22:09;4.30;97.70
34574;DHT22;20809;49.594;8.734;2023-04-03T19:25:14;4.30;97.90
34574;DHT22;20809;49.594;8.734;2023-04-03T19:28:19;4.30;98.40
34574;DHT22;20809;49.594;8.734;2023-04-03T19:31:22;4.30;97.70
34574;DHT22;20809;49.594;8.734;2023-04-03T19:34:32;4.30;97.80
34574;DHT22;20809;49.594;8.734;2023-04-03T19:37:34;4.30;97.90
34574;DHT22;20809;49.594;8.734;2023-04-03T19:40:38;4.20;98.60
34574;DHT22;20809;49.594;8.734;2023-04-03T19:43:45;4.10;98.60
34574;DHT22;20809;49.594;8.734;2023-04-03T19:46:46;4.10;98.60
34574;DHT22;20809;49.594;8.734;2023-04-03T19:49:50;4.10;99.10
34574;DHT22;20809;49.594;8.734;2023-04-03T19:52:51;4.00;99.20
34574;DHT22;20809;49.594;8.734;2023-04-03T19:55:55;4.00;99.50
34574;DHT22;20809;49.594;8.734;2023-04-03T19:58:57;4.00;99.70
34574;DHT22;20809;49.594;8.734;2023-04-03T20:01:59;3.90;99.90
34574;DHT22;20809;49.594;8.734;2023-04-03T20:05:05;3.90;99.90
34574;DHT22;20809;49.594;8.734;2023-04-03T20:08:15;3.80;99.90
34574;DHT22;20809;49.594;8.734;2023-04-03T20:11:17;3.80;99.90
34574;DHT22;20809;49.594;8.734;2023-04-03T20:14:19;3.80;99.90
34574;DHT22;20809;49.594;8.734;2023-04-03T20:17:21;3.70;99.90
34574;DHT22;20809;49.594;8.734;2023-04-03T20:20:22;3.60;99.90
34574;DHT22;20809;49.594;8.734;2023-04-03T20:23:27;3.60;99.90
34574;DHT22;20809;49.594;8.734;2023-04-03T20:26:38;3.60;99.90
34574;DHT22;20809;49.594;8.734;2023-04-03T20:29:48;3.60;99.90
34574;DHT22;20809;49.594;8.734;2023-04-03T20:32:51;3.50;99.90
34574;DHT22;20809;49.594;8.734;2023-04-03T20:35:55;3.40;99.90
34574;DHT22;20809;49.594;8.734;2023-04-03T20:38:57;3.40;99.90
34574;DHT22;20809;49.594;8.734;2023-04-03T20:41:59;3.30;99.90
34574;DHT22;20809;49.594;8.734;2023-04-03T20:45:11;3.20;99.90
34574;DHT22;20809;49.594;8.734;2023-04-03T20:48:16;3.20;99.90
34574;DHT22;20809;49.594;8.734;2023-04-03T20:51:22;3.10;99.90
34574;DHT22;20809;49.594;8.734;2023-04-03T20:54:25;3.00;99.90
34574;DHT22;20809;49.594;8.734;2023-04-03T20:57:29;3.00;99.90
34574;DHT22;20809;49.594;8.734;2023-04-03T21:00:32;3.00;99.90
34574;DHT22;20809;49.594;8.734;2023-04-03T21:03:38;2.90;99.90
34574;DHT22;20809;49.594;8.734;2023-04-03T21:21:34;2.70;99.90
34574;DHT22;20809;49.594;8.734;2023-04-03T21:24:46;2.60;99.90
34574;DHT22;20809;49.594;8.734;2023-04-03T21:27:51;2.60;99.90
34574;DHT22;20809;49.594;8.734;2023-04-03T21:30:57;2.50;99.90
34574;DHT22;20809;49.594;8.734;2023-04-03T21:34:02;2.50;99.90
34574;DHT22;20809;49.594;8.734;2023-04-03T21:37:09;2.50;99.90